createdAt,value
2023-02-09T00:02:10.700Z,14.00
2023-02-09T00:09:28.614Z,14.17
2023-02-09T00:12:56.421Z,14.20
2023-02-09T00:16:17.798Z,16.87
2023-02-09T00:19:50.612Z,15.50
2023-02-09T00:23:07.472Z,18.20
2023-02-09T00:26:41.587Z,16.77
2023-02-09T00:29:58.930Z,11.80
2023-02-09T00:33:09.087Z,13.47
2023-02-09T00:36:23.629Z,14.30
2023-02-09T00:39:43.076Z,14.63
2023-02-09T00:43:11.086Z,12.90
2023-02-09T00:46:55.062Z,16.37
2023-02-09T00:50:10.149Z,13.60
2023-02-09T00:53:25.313Z,18.63
2023-02-09T00:56:54.554Z,11.97
2023-02-09T01:00:24.731Z,10.37
2023-02-09T01:03:45.986Z,14.40
2023-02-09T01:06:56.978Z,14.50
2023-02-09T01:10:32.443Z,13.43
2023-02-09T01:14:14.621Z,14.07
2023-02-09T01:17:34.877Z,14.67
2023-02-09T01:21:07.376Z,12.80
2023-02-09T01:24:52.440Z,13.43
2023-02-09T01:28:32.282Z,16.17
2023-02-09T01:31:58.505Z,15.67
2023-02-09T01:35:13.915Z,11.87
2023-02-09T01:38:43.556Z,14.87
2023-02-09T01:42:01.191Z,15.40
2023-02-09T01:45:40.871Z,17.37
2023-02-09T01:49:02.429Z,13.13
2023-02-09T01:52:53.150Z,13.17
2023-02-09T02:03:48.904Z,15.67
2023-02-09T02:11:12.853Z,10.70
2023-02-09T02:14:49.717Z,16.57
2023-02-09T02:18:32.710Z,15.17
2023-02-09T02:22:39.658Z,17.40
2023-02-09T02:26:42.001Z,13.83
2023-02-09T02:30:55.164Z,15.63
2023-02-09T02:34:31.924Z,13.80
2023-02-09T02:38:13.727Z,14.00
2023-02-09T02:45:08.271Z,12.43
2023-02-09T02:52:26.781Z,11.80
2023-02-09T02:56:06.923Z,15.40
2023-02-09T02:59:30.632Z,14.33
2023-02-09T03:03:15.076Z,12.37
2023-02-09T03:10:03.331Z,13.17
2023-02-09T03:13:43.264Z,14.20
2023-02-09T03:17:06.194Z,16.60
2023-02-09T03:20:22.103Z,16.37
2023-02-09T03:23:42.400Z,12.57
2023-02-09T03:27:29.968Z,13.67
2023-02-09T03:30:58.035Z,10.47
2023-02-09T03:34:23.464Z,12.97
2023-02-09T03:37:33.887Z,15.30
2023-02-09T03:41:00.963Z,12.97
2023-02-09T03:44:32.223Z,16.23
2023-02-09T03:48:11.578Z,13.13
2023-02-09T03:51:29.684Z,13.70
2023-02-09T03:54:51.642Z,12.80
2023-02-09T03:58:23.716Z,14.07
2023-02-09T04:01:56.787Z,13.43
2023-02-09T04:05:23.850Z,12.83
2023-02-09T04:09:15.828Z,15.30
2023-02-09T04:12:34.438Z,12.93
2023-02-09T04:15:59.671Z,12.67
2023-02-09T04:22:59.482Z,13.80
2023-02-09T04:29:34.075Z,15.67
2023-02-09T04:32:41.819Z,13.57
2023-02-09T04:35:51.896Z,12.90
2023-02-09T04:39:00.016Z,15.57
2023-02-09T04:42:08.312Z,17.27
2023-02-09T04:45:15.308Z,15.00
2023-02-09T04:48:29.398Z,15.30
2023-02-09T04:51:41.700Z,13.17
2023-02-09T04:54:50.581Z,15.73
2023-02-09T04:58:16.244Z,13.60
2023-02-09T05:01:28.050Z,13.90
2023-02-09T05:04:35.560Z,13.63
2023-02-09T05:07:49.979Z,14.57
2023-02-09T05:11:01.468Z,15.10
2023-02-09T05:14:08.317Z,14.93
2023-02-09T05:17:16.044Z,14.03
2023-02-09T05:20:32.654Z,16.67
2023-02-09T05:23:41.213Z,17.00
2023-02-09T05:26:49.511Z,15.10
2023-02-09T05:29:58.670Z,16.57
2023-02-09T05:33:34.206Z,13.97
2023-02-09T05:36:54.780Z,15.17
2023-02-09T05:40:42.148Z,14.73
2023-02-09T05:44:01.814Z,14.30
2023-02-09T05:47:44.976Z,13.77
2023-02-09T05:51:12.402Z,15.90
2023-02-09T05:54:56.637Z,15.20
2023-02-09T05:58:09.499Z,15.37
2023-02-09T06:01:53.264Z,15.67
2023-02-09T06:05:11.933Z,19.60
2023-02-09T06:09:04.094Z,10.80
2023-02-09T06:12:46.846Z,22.03
2023-02-09T06:16:36.572Z,12.63
2023-02-09T06:20:30.273Z,17.17
2023-02-09T06:23:45.844Z,14.20
2023-02-09T06:39:28.537Z,16.83
2023-02-09T06:43:45.319Z,17.53
2023-02-09T06:57:04.928Z,18.90
2023-02-09T07:40:35.949Z,21.93
2023-02-09T07:44:19.209Z,20.83
2023-02-09T08:18:31.969Z,23.57
2023-02-09T08:21:49.642Z,25.23
2023-02-09T08:25:14.981Z,19.50
2023-02-09T08:28:42.718Z,24.77
2023-02-09T08:32:04.837Z,22.03
2023-02-09T08:35:32.873Z,24.90
2023-02-09T08:46:41.166Z,20.60
2023-02-09T08:50:10.994Z,21.67
2023-02-09T08:53:30.325Z,25.97
2023-02-09T08:56:59.737Z,21.13
2023-02-09T09:00:39.361Z,24.93
2023-02-09T09:04:21.910Z,27.67
2023-02-09T09:07:40.586Z,27.10
2023-02-09T09:14:27.510Z,31.70
2023-02-09T09:17:36.357Z,26.53
2023-02-09T09:21:08.203Z,25.43
2023-02-09T09:24:24.074Z,24.83
2023-02-09T09:28:00.045Z,25.90
2023-02-09T09:31:21.792Z,29.33
2023-02-09T09:34:36.454Z,24.57
2023-02-09T09:38:24.139Z,25.30
2023-02-09T09:41:51.995Z,27.03
2023-02-09T09:45:16.008Z,26.77
2023-02-09T09:48:46.062Z,26.13
2023-02-09T09:59:51.994Z,24.33
2023-02-09T10:06:48.623Z,25.63
2023-02-09T10:10:24.719Z,22.93
2023-02-09T10:14:48.622Z,22.90
2023-02-09T10:18:14.658Z,26.33
2023-02-09T10:25:04.450Z,24.33
2023-02-09T10:41:07.844Z,22.05
2023-02-09T16:31:47.492Z,15.43
2023-02-09T16:35:17.582Z,16.87
2023-02-09T16:38:34.146Z,23.07
2023-02-09T16:41:55.364Z,19.23
2023-02-09T16:45:22.784Z,17.30
2023-02-09T16:48:52.439Z,18.00
2023-02-09T16:52:02.530Z,17.43
2023-02-09T16:55:24.432Z,18.73
2023-02-09T16:58:37.301Z,13.90
2023-02-09T17:01:50.220Z,18.03
2023-02-09T17:05:00.546Z,14.43
2023-02-09T17:08:27.742Z,14.23
2023-02-09T17:11:45.196Z,17.53
2023-02-09T17:14:53.029Z,14.77
2023-02-09T17:18:02.175Z,11.43
2023-02-09T17:21:08.736Z,13.10
2023-02-09T17:24:17.013Z,12.93
2023-02-09T17:27:19.838Z,15.27
2023-02-09T17:30:22.556Z,12.43
2023-02-09T17:33:27.460Z,19.73
2023-02-09T17:36:32.011Z,16.87
2023-02-09T17:39:34.917Z,14.27
2023-02-09T17:42:38.656Z,15.93
2023-02-09T17:45:47.666Z,16.47
2023-02-09T17:48:50.570Z,16.37
2023-02-09T17:51:54.646Z,16.63
2023-02-09T17:54:57.426Z,18.70
2023-02-09T17:58:01.265Z,19.50
2023-02-09T18:01:20.185Z,18.20
2023-02-09T18:04:26.678Z,15.43
2023-02-09T18:07:31.122Z,17.57
2023-02-09T18:10:33.995Z,20.30
2023-02-09T18:13:36.645Z,20.63
2023-02-09T18:16:39.297Z,17.87
2023-02-09T18:19:42.048Z,22.33
2023-02-09T18:22:46.139Z,26.33
2023-02-09T18:25:50.907Z,22.43
2023-02-09T18:28:53.571Z,21.30
2023-02-09T18:31:56.635Z,22.30
2023-02-09T18:34:59.264Z,21.27
2023-02-09T18:38:06.102Z,21.33
2023-02-09T18:41:11.249Z,22.43
2023-02-09T18:44:14.132Z,24.17
2023-02-09T18:47:17.212Z,17.10
2023-02-09T18:50:21.631Z,20.40
2023-02-09T18:53:25.714Z,18.47
2023-02-09T18:56:28.472Z,18.67
2023-02-09T18:59:32.381Z,19.83
2023-02-09T19:02:35.253Z,19.50
2023-02-09T19:05:38.078Z,20.80
2023-02-09T19:08:42.276Z,23.90
2023-02-09T19:11:45.336Z,21.73
2023-02-09T19:14:48.408Z,24.47
2023-02-09T19:17:51.440Z,24.90
2023-02-09T19:20:55.588Z,24.90
2023-02-09T19:23:59.692Z,26.40
2023-02-09T19:27:03.570Z,25.20
2023-02-09T19:30:06.875Z,23.73
2023-02-09T19:33:09.520Z,21.50
2023-02-09T19:36:12.299Z,21.40
2023-02-09T19:39:17.334Z,21.43
2023-02-09T19:42:20.948Z,22.70
2023-02-09T19:45:24.086Z,21.03
2023-02-09T19:48:26.837Z,19.20
2023-02-09T19:51:29.538Z,20.83
2023-02-09T19:54:35.030Z,25.37
2023-02-09T19:57:37.715Z,28.07
2023-02-09T20:00:40.359Z,32.83
2023-02-09T20:03:43.649Z,32.87
2023-02-09T20:06:46.355Z,31.87
2023-02-09T20:09:52.299Z,26.67
2023-02-09T20:12:57.090Z,20.80
2023-02-09T20:15:59.775Z,22.00
2023-02-09T20:19:02.456Z,22.33
2023-02-09T20:22:05.189Z,23.97
2023-02-09T20:25:10.598Z,22.23
2023-02-09T20:28:13.622Z,25.97
2023-02-09T20:31:19.635Z,23.47
2023-02-09T20:34:22.652Z,26.00
2023-02-09T20:37:25.773Z,18.63
2023-02-09T20:40:30.803Z,21.53
2023-02-09T20:43:50.983Z,23.17
2023-02-09T20:46:59.629Z,21.47
2023-02-09T20:50:02.389Z,21.63
2023-02-09T20:53:05.116Z,22.40
2023-02-09T20:56:09.602Z,20.33
2023-02-09T20:59:13.498Z,23.00
2023-02-09T21:02:16.259Z,17.97
2023-02-09T21:05:19.014Z,21.67
2023-02-09T21:08:22.818Z,20.13
2023-02-09T21:11:27.014Z,18.13
2023-02-09T21:14:41.848Z,22.27
2023-02-09T21:17:48.436Z,21.43
2023-02-09T21:20:51.492Z,21.30
2023-02-09T21:23:54.790Z,23.97
2023-02-09T21:27:00.610Z,19.47
2023-02-09T21:30:03.897Z,21.30
2023-02-09T21:33:06.556Z,20.40
2023-02-09T21:36:10.132Z,22.23
2023-02-09T21:39:13.122Z,20.03
2023-02-09T21:42:31.183Z,21.30
2023-02-09T21:45:33.978Z,20.00
2023-02-09T21:48:36.722Z,21.67
2023-02-09T21:51:39.641Z,21.10
2023-02-09T21:54:42.293Z,21.53
2023-02-09T21:57:46.275Z,24.47
2023-02-09T22:00:57.512Z,22.87
2023-02-09T22:04:00.611Z,25.03
2023-02-09T22:07:03.281Z,21.60
2023-02-09T22:10:06.744Z,22.93
2023-02-09T22:13:10.736Z,16.83
2023-02-09T22:16:19.693Z,22.50
2023-02-09T22:19:22.568Z,21.50
2023-02-09T22:22:25.287Z,23.97
2023-02-09T22:25:28.973Z,18.97
2023-02-09T22:28:36.005Z,28.27
2023-02-09T22:31:39.024Z,19.57
2023-02-09T22:34:41.754Z,22.80
2023-02-09T22:37:44.453Z,21.53
2023-02-09T22:40:47.123Z,23.10
2023-02-09T22:43:53.104Z,24.07
2023-02-09T22:46:56.131Z,23.47
2023-02-09T22:49:58.848Z,22.40
2023-02-09T22:53:01.548Z,21.03
2023-02-09T22:56:04.796Z,20.70
2023-02-09T22:59:09.372Z,22.63
2023-02-09T23:02:12.706Z,19.23
2023-02-09T23:05:15.436Z,18.33
2023-02-09T23:08:18.423Z,18.87
2023-02-09T23:11:21.366Z,19.13
2023-02-09T23:14:25.452Z,16.57
2023-02-09T23:20:32.156Z,21.07
2023-02-09T23:23:35.417Z,19.07
2023-02-09T23:26:39.658Z,20.83
2023-02-09T23:29:43.884Z,21.33
2023-02-09T23:32:47.410Z,19.97
2023-02-09T23:35:50.139Z,20.17
2023-02-09T23:38:54.182Z,21.13
2023-02-09T23:41:56.937Z,19.57
2023-02-09T23:45:00.991Z,17.10
2023-02-09T23:48:03.684Z,21.53
2023-02-09T23:51:08.788Z,21.67
2023-02-09T23:54:11.579Z,33.50
2023-02-09T23:57:14.254Z,22.50
